Aérodrome :
LOGIN :

S'inscrire | Disclaimer

   EN    FR    IT 

 










Légende :    VFR   VFR Marginal   IFR   IFR Intensif   IFR Très Intensif
Visi : 
Plafond : 
>= 8 km
>= 3000ft
5 à 8 km
1000 à 3000 ft
1500m à 5 km
500 à 1000 ft
800 à 1500m
200 à 500 ft
< 800m
< 200 ft
Symboles :   Orages  Brouillard  Fortes neiges  Fortes précipitations  Vent > 20 kt
SIGMETs :   Divers  Orages  Givrage  Turbulence  Onde Orograph.  Cendres Volcan.







- Altitude de l'aérodrome : 584 ft
- Voir les cartes d'approche


LFPV - Villacoublay Vélizy

DERNIER METAR :
  • 222230Z AUTO 21007KT 180V240 8000 OVC003 01/01 Q0997 TEMPO 1000 SN VV///

METARs EXPIRÉS :
  • 222200Z AUTO 20008KT 160V240 9999 OVC003/// ///TCU 01/01 Q0998 TEMPO 1000 SN VV///
  • 222130Z AUTO 19006KT 1600 -SN BR VV/// ///TCU 00/00 Q0998 TEMPO 1000 SN VV///
  • 222100Z AUTO 17008KT 140V200 2100 -SN BR VV/// ///CB 01/01 Q0998 TEMPO 1000 SN VV///
  • 222030Z AUTO 16008KT 2500 BR VV/// ///CB 01/01 Q0999 TEMPO 1000 SN VV///
  • 222000Z AUTO 17006KT 0800 0700 R27/0900U R09/0800U FG VV/// ///TCU 00/00 Q1000 BECMG 2000 SNRA BKN002 OVC005

TAF TAF LFPV
Valide du 22 à 21h jusqu'au 23 à 21h UTC


222000Z 2221/2321 20008KT 2000 SNRA BKN002 OVC005
PROB30 2221/2302 1000 SN VV///
BECMG 2302/2304 29005KT 6000 NSW
BECMG 2310/2312 SCT005 BKN012
BECMG 2312/2315 BKN015
TEMPO 2315/2318 3000 SNRA BKN005
Pas de NOTAMs connus pour ce terrain.
1 SIGMET publié pour la FIR Paris (LFFF) :
 
Givrage fort avec pluie surfondue
LFFF SIGMET 1 VALID 221930/222300 LFPW
LFFF PARIS FIR/UIR SEV ICE (FZRA) FCST WI N5000 E00500 - N4930 E00600 - N4900 E00445 - N4830 E00530 - N4730 E00415 - N4715 E00345 - N5000 E00500 SFC/FL030 MOV E 15KT NC=



MET'MAP, la Météo Aéronautique d'un coup d'oeil ! - Copyright ORBIFLY Décembre 2007 - Disclaimer

ORBIFLY MET'MAP TEAM :

Programmation & Développement : Alexandra Zaïnal
Conception & Développement : Baudouin d'Aumeries
Co-Programmation & Développement : Marc-Olivier Méhu
Soutien technique & logistique : Manuel Goepfert

Contact : metmap@orbifly.com




SOURCES & CREDITS :

   NOAA